KFMY/FMY METAR and TAF weather

Enter ICAO airport designator
Station Type Date Time Source
KFMY METAR 2018/12/15 04:53 UTC NOAA

KFMY 150453Z AUTO 17010KT 10SM BKN090 BKN110 24/22 A2998 RMK AO2 LTG DSNT W AND NW SLP155 T02440222 402940183


Station Type Date Time Source
KFMY Decoded METAR 2018/12/15 04:53 UTC NOAA

FORT MYERS PAGE FIELD, FL, United States (KFMY) 26-35N 081-52W 4M
Dec 14, 2018 - 11:53 PM EST / 2018.12.15 0453 UTC
Wind: from the S (170 degrees) at 12 MPH (10 KT):0
Visibility: 10 mile(s):0
Sky conditions: mostly cloudy
Weather: Lightning observed
Temperature: 75.9 F (24.4 C)
Dew Point: 72.0 F (22.2 C)
Relative Humidity: 87%
Pressure (altimeter): 29.98 in. Hg (1015 hPa)
ob: KFMY 150453Z AUTO 17010KT 10SM BKN090 BKN110 24/22 A2998 RMK AO2 LTG DSNT W AND NW SLP155 T02440222 402940183
cycle: 5

Station Type Date Time Source
KFMY TAF 2018/12/14 21:28 UTC NOAA

TAF
AMD KFMY 142125Z 1421/1518 18007KT P6SM VCSH SCT025 BKN150
FM150100 18008KT P6SM VCSH SCT035 BKN080
TEMPO 1505/1508 2SM TSRA BKN020CB
FM150800 20008KT P6SM VCSH SCT020 BKN040
FM151300 28004KT P6SM VCSH SCT035


Example: see airport list